sensor_id;sensor_type;location;lat;lon;timestamp;P1;durP1;ratioP1;P2;durP2;ratioP2
6902;SDS011;20232;49.408;8.702;2022-09-13T04:02:12;7.47;;;6.23;;
6902;SDS011;20232;49.408;8.702;2022-09-13T04:04:39;6.57;;;5.97;;
6902;SDS011;20232;49.408;8.702;2022-09-13T04:07:07;7.83;;;6.73;;
6902;SDS011;20232;49.408;8.702;2022-09-13T04:09:33;6.63;;;6.03;;
6902;SDS011;20232;49.408;8.702;2022-09-13T04:11:59;7.10;;;6.40;;
6902;SDS011;20232;49.408;8.702;2022-09-13T04:14:25;6.47;;;5.97;;
6902;SDS011;20232;49.408;8.702;2022-09-13T04:16:54;7.20;;;6.50;;
6902;SDS011;20232;49.408;8.702;2022-09-13T04:19:21;6.37;;;5.87;;
6902;SDS011;20232;49.408;8.702;2022-09-13T04:21:50;8.57;;;6.10;;
6902;SDS011;20232;49.408;8.702;2022-09-13T04:24:17;6.70;;;6.07;;
6902;SDS011;20232;49.408;8.702;2022-09-13T04:26:44;8.23;;;7.10;;
6902;SDS011;20232;49.408;8.702;2022-09-13T04:29:13;6.73;;;5.83;;
6902;SDS011;20232;49.408;8.702;2022-09-13T04:31:38;5.87;;;5.37;;
6902;SDS011;20232;49.408;8.702;2022-09-13T04:34:04;6.93;;;6.27;;
6902;SDS011;20232;49.408;8.702;2022-09-13T04:36:30;6.40;;;5.83;;
6902;SDS011;20232;49.408;8.702;2022-09-13T04:38:56;6.90;;;5.50;;
6902;SDS011;20232;49.408;8.702;2022-09-13T04:41:23;8.27;;;5.63;;
6902;SDS011;20232;49.408;8.702;2022-09-13T04:43:49;7.43;;;6.10;;
6902;SDS011;20232;49.408;8.702;2022-09-13T04:46:15;6.53;;;5.93;;
6902;SDS011;20232;49.408;8.702;2022-09-13T04:48:41;7.80;;;5.97;;
6902;SDS011;20232;49.408;8.702;2022-09-13T04:51:06;8.13;;;6.07;;
6902;SDS011;20232;49.408;8.702;2022-09-13T04:53:32;6.60;;;5.90;;
6902;SDS011;20232;49.408;8.702;2022-09-13T04:55:59;6.37;;;5.77;;
6902;SDS011;20232;49.408;8.702;2022-09-13T04:58:28;5.90;;;5.40;;
6902;SDS011;20232;49.408;8.702;2022-09-13T05:01:04;7.80;;;5.30;;
6902;SDS011;20232;49.408;8.702;2022-09-13T05:03:32;5.87;;;5.40;;
6902;SDS011;20232;49.408;8.702;2022-09-13T05:06:05;6.80;;;5.40;;
6902;SDS011;20232;49.408;8.702;2022-09-13T05:08:33;6.30;;;5.70;;
6902;SDS011;20232;49.408;8.702;2022-09-13T05:11:00;7.60;;;5.87;;
6902;SDS011;20232;49.408;8.702;2022-09-13T05:13:26;6.70;;;5.90;;
6902;SDS011;20232;49.408;8.702;2022-09-13T05:15:55;6.53;;;5.93;;
6902;SDS011;20232;49.408;8.702;2022-09-13T05:18:32;6.70;;;6.00;;
6902;SDS011;20232;49.408;8.702;2022-09-13T05:20:59;6.73;;;6.00;;
6902;SDS011;20232;49.408;8.702;2022-09-13T05:23:26;6.50;;;5.60;;
6902;SDS011;20232;49.408;8.702;2022-09-13T05:25:57;7.70;;;5.80;;
6902;SDS011;20232;49.408;8.702;2022-09-13T05:28:25;6.33;;;5.73;;
6902;SDS011;20232;49.408;8.702;2022-09-13T05:30:53;8.27;;;5.90;;
6902;SDS011;20232;49.408;8.702;2022-09-13T05:33:39;6.43;;;5.53;;
6902;SDS011;20232;49.408;8.702;2022-09-13T05:36:04;7.33;;;5.90;;
6902;SDS011;20232;49.408;8.702;2022-09-13T05:38:31;9.57;;;5.83;;
6902;SDS011;20232;49.408;8.702;2022-09-13T05:40:58;7.90;;;6.00;;
6902;SDS011;20232;49.408;8.702;2022-09-13T05:43:26;6.63;;;5.77;;
6902;SDS011;20232;49.408;8.702;2022-09-13T05:46:05;7.20;;;5.60;;
6902;SDS011;20232;49.408;8.702;2022-09-13T05:48:32;6.53;;;5.67;;
6902;SDS011;20232;49.408;8.702;2022-09-13T05:51:03;6.30;;;5.70;;
6902;SDS011;20232;49.408;8.702;2022-09-13T05:53:34;7.10;;;6.37;;
6902;SDS011;20232;49.408;8.702;2022-09-13T05:56:01;6.97;;;6.33;;
6902;SDS011;20232;49.408;8.702;2022-09-13T05:58:27;6.70;;;6.00;;
6902;SDS011;20232;49.408;8.702;2022-09-13T06:00:53;7.03;;;5.67;;
6902;SDS011;20232;49.408;8.702;2022-09-13T06:03:20;6.33;;;5.47;;
6902;SDS011;20232;49.408;8.702;2022-09-13T06:05:47;6.93;;;5.43;;
6902;SDS011;20232;49.408;8.702;2022-09-13T06:08:12;6.23;;;5.50;;
6902;SDS011;20232;49.408;8.702;2022-09-13T06:10:38;7.13;;;5.60;;
6902;SDS011;20232;49.408;8.702;2022-09-13T06:13:04;5.97;;;5.33;;
6902;SDS011;20232;49.408;8.702;2022-09-13T06:15:29;5.87;;;5.30;;
6902;SDS011;20232;49.408;8.702;2022-09-13T06:17:55;6.50;;;5.40;;
6902;SDS011;20232;49.408;8.702;2022-09-13T06:20:20;8.63;;;5.73;;
6902;SDS011;20232;49.408;8.702;2022-09-13T06:22:47;6.80;;;5.40;;
6902;SDS011;20232;49.408;8.702;2022-09-13T06:25:13;6.90;;;5.23;;
6902;SDS011;20232;49.408;8.702;2022-09-13T06:27:38;6.77;;;6.07;;
6902;SDS011;20232;49.408;8.702;2022-09-13T06:30:05;9.10;;;5.77;;
6902;SDS011;20232;49.408;8.702;2022-09-13T06:32:32;11.00;;;5.43;;
6902;SDS011;20232;49.408;8.702;2022-09-13T06:35:01;5.83;;;5.10;;
6902;SDS011;20232;49.408;8.702;2022-09-13T06:37:26;6.23;;;5.10;;
6902;SDS011;20232;49.408;8.702;2022-09-13T06:39:52;6.20;;;4.90;;
6902;SDS011;20232;49.408;8.702;2022-09-13T06:42:17;7.27;;;5.10;;
6902;SDS011;20232;49.408;8.702;2022-09-13T06:44:44;5.77;;;5.10;;
6902;SDS011;20232;49.408;8.702;2022-09-13T06:47:12;5.57;;;4.90;;
6902;SDS011;20232;49.408;8.702;2022-09-13T06:49:38;6.87;;;5.10;;
6902;SDS011;20232;49.408;8.702;2022-09-13T06:52:03;8.37;;;5.10;;
6902;SDS011;20232;49.408;8.702;2022-09-13T06:54:29;7.13;;;5.20;;
6902;SDS011;20232;49.408;8.702;2022-09-13T06:56:55;7.53;;;5.10;;
6902;SDS011;20232;49.408;8.702;2022-09-13T06:59:20;7.83;;;4.80;;
6902;SDS011;20232;49.408;8.702;2022-09-13T07:01:46;9.83;;;4.70;;
6902;SDS011;20232;49.408;8.702;2022-09-13T07:04:13;7.37;;;4.40;;
6902;SDS011;20232;49.408;8.702;2022-09-13T07:06:41;6.17;;;4.23;;
6902;SDS011;20232;49.408;8.702;2022-09-13T07:09:12;6.03;;;4.30;;
6902;SDS011;20232;49.408;8.702;2022-09-13T07:11:42;6.20;;;4.57;;
6902;SDS011;20232;49.408;8.702;2022-09-13T07:14:10;4.33;;;4.03;;
6902;SDS011;20232;49.408;8.702;2022-09-13T07:16:41;5.87;;;4.30;;
6902;SDS011;20232;49.408;8.702;2022-09-13T07:19:11;5.97;;;4.23;;
6902;SDS011;20232;49.408;8.702;2022-09-13T07:21:39;5.13;;;4.13;;
6902;SDS011;20232;49.408;8.702;2022-09-13T07:24:05;4.87;;;3.77;;
6902;SDS011;20232;49.408;8.702;2022-09-13T07:26:31;5.30;;;4.10;;
6902;SDS011;20232;49.408;8.702;2022-09-13T07:28:57;7.10;;;3.90;;
6902;SDS011;20232;49.408;8.702;2022-09-13T07:31:25;5.87;;;4.10;;
6902;SDS011;20232;49.408;8.702;2022-09-13T07:33:54;5.67;;;4.07;;
6902;SDS011;20232;49.408;8.702;2022-09-13T07:36:31;3.90;;;3.50;;
6902;SDS011;20232;49.408;8.702;2022-09-13T07:38:58;5.37;;;4.30;;
6902;SDS011;20232;49.408;8.702;2022-09-13T07:41:24;5.50;;;4.70;;
6902;SDS011;20232;49.408;8.702;2022-09-13T07:43:51;4.83;;;3.70;;
6902;SDS011;20232;49.408;8.702;2022-09-13T07:46:18;8.53;;;3.80;;
6902;SDS011;20232;49.408;8.702;2022-09-13T07:48:45;4.93;;;3.57;;
6902;SDS011;20232;49.408;8.702;2022-09-13T07:51:12;4.57;;;3.77;;
6902;SDS011;20232;49.408;8.702;2022-09-13T07:53:40;7.20;;;4.03;;
6902;SDS011;20232;49.408;8.702;2022-09-13T07:56:07;7.33;;;4.10;;
6902;SDS011;20232;49.408;8.702;2022-09-13T07:58:38;7.30;;;4.17;;
6902;SDS011;20232;49.408;8.702;2022-09-13T08:01:06;6.20;;;3.77;;
6902;SDS011;20232;49.408;8.702;2022-09-13T08:03:37;5.83;;;3.70;;
6902;SDS011;20232;49.408;8.702;2022-09-13T08:06:03;4.30;;;3.30;;
6902;SDS011;20232;49.408;8.702;2022-09-13T08:08:29;5.33;;;3.40;;
6902;SDS011;20232;49.408;8.702;2022-09-13T08:10:56;6.27;;;3.60;;
6902;SDS011;20232;49.408;8.702;2022-09-13T08:13:23;7.83;;;4.30;;
6902;SDS011;20232;49.408;8.702;2022-09-13T08:15:49;8.53;;;4.80;;
6902;SDS011;20232;49.408;8.702;2022-09-13T08:18:18;4.33;;;3.93;;
6902;SDS011;20232;49.408;8.702;2022-09-13T08:20:44;6.80;;;4.57;;
6902;SDS011;20232;49.408;8.702;2022-09-13T08:23:10;5.43;;;3.80;;
6902;SDS011;20232;49.408;8.702;2022-09-13T08:25:37;10.33;;;6.03;;
6902;SDS011;20232;49.408;8.702;2022-09-13T08:28:06;4.97;;;3.30;;
6902;SDS011;20232;49.408;8.702;2022-09-13T08:30:34;4.10;;;3.20;;
6902;SDS011;20232;49.408;8.702;2022-09-13T08:33:04;4.57;;;3.40;;
6902;SDS011;20232;49.408;8.702;2022-09-13T08:35:30;3.83;;;2.90;;
6902;SDS011;20232;49.408;8.702;2022-09-13T08:37:57;6.70;;;3.37;;
6902;SDS011;20232;49.408;8.702;2022-09-13T08:40:23;4.07;;;3.33;;
6902;SDS011;20232;49.408;8.702;2022-09-13T08:43:02;4.97;;;3.70;;
6902;SDS011;20232;49.408;8.702;2022-09-13T08:45:41;4.40;;;3.53;;
6902;SDS011;20232;49.408;8.702;2022-09-13T08:48:15;4.80;;;3.57;;
6902;SDS011;20232;49.408;8.702;2022-09-13T08:50:46;3.20;;;2.90;;
6902;SDS011;20232;49.408;8.702;2022-09-13T08:53:21;4.63;;;3.20;;
6902;SDS011;20232;49.408;8.702;2022-09-13T08:56:05;4.27;;;2.83;;
6902;SDS011;20232;49.408;8.702;2022-09-13T09:01:07;5.13;;;2.90;;
6902;SDS011;20232;49.408;8.702;2022-09-13T09:03:45;3.03;;;2.80;;
6902;SDS011;20232;49.408;8.702;2022-09-13T09:06:17;3.63;;;2.60;;
6902;SDS011;20232;49.408;8.702;2022-09-13T09:08:48;3.00;;;2.70;;
6902;SDS011;20232;49.408;8.702;2022-09-13T09:11:30;3.60;;;2.70;;
6902;SDS011;20232;49.408;8.702;2022-09-13T09:14:16;5.70;;;2.90;;
6902;SDS011;20232;49.408;8.702;2022-09-13T09:16:54;3.07;;;2.73;;
6902;SDS011;20232;49.408;8.702;2022-09-13T09:19:28;3.63;;;2.37;;
6902;SDS011;20232;49.408;8.702;2022-09-13T09:21:58;2.80;;;2.60;;
6902;SDS011;20232;49.408;8.702;2022-09-13T09:24:28;5.77;;;2.80;;
6902;SDS011;20232;49.408;8.702;2022-09-13T09:27:00;2.70;;;2.30;;
6902;SDS011;20232;49.408;8.702;2022-09-13T09:29:30;3.40;;;2.70;;
6902;SDS011;20232;49.408;8.702;2022-09-13T09:32:06;3.07;;;2.27;;
6902;SDS011;20232;49.408;8.702;2022-09-13T09:38:00;3.40;;;2.30;;
6902;SDS011;20232;49.408;8.702;2022-09-13T09:40:46;4.10;;;2.50;;
6902;SDS011;20232;49.408;8.702;2022-09-13T09:43:23;4.30;;;2.60;;
6902;SDS011;20232;49.408;8.702;2022-09-13T09:45:54;2.90;;;2.33;;
6902;SDS011;20232;49.408;8.702;2022-09-13T09:48:23;4.90;;;2.87;;
6902;SDS011;20232;49.408;8.702;2022-09-13T09:50:55;4.20;;;2.50;;
6902;SDS011;20232;49.408;8.702;2022-09-13T09:53:34;3.80;;;2.37;;
6902;SDS011;20232;49.408;8.702;2022-09-13T09:58:49;4.20;;;2.63;;
6902;SDS011;20232;49.408;8.702;2022-09-13T10:01:30;4.77;;;2.57;;
6902;SDS011;20232;49.408;8.702;2022-09-13T10:04:03;4.13;;;2.90;;
6902;SDS011;20232;49.408;8.702;2022-09-13T10:06:38;2.93;;;2.30;;
6902;SDS011;20232;49.408;8.702;2022-09-13T10:09:06;3.50;;;2.80;;
6902;SDS011;20232;49.408;8.702;2022-09-13T10:11:47;5.17;;;2.70;;
6902;SDS011;20232;49.408;8.702;2022-09-13T10:17:05;3.50;;;3.00;;
6902;SDS011;20232;49.408;8.702;2022-09-13T10:19:40;4.80;;;2.60;;
6902;SDS011;20232;49.408;8.702;2022-09-13T10:22:15;4.53;;;2.87;;
6902;SDS011;20232;49.408;8.702;2022-09-13T10:24:40;3.30;;;2.60;;
6902;SDS011;20232;49.408;8.702;2022-09-13T10:27:17;4.67;;;3.20;;
6902;SDS011;20232;49.408;8.702;2022-09-13T10:29:50;3.77;;;2.67;;
6902;SDS011;20232;49.408;8.702;2022-09-13T10:32:20;4.80;;;3.40;;
6902;SDS011;20232;49.408;8.702;2022-09-13T10:34:47;3.27;;;2.80;;
6902;SDS011;20232;49.408;8.702;2022-09-13T10:37:15;19.47;;;12.60;;
6902;SDS011;20232;49.408;8.702;2022-09-13T10:42:23;5.13;;;2.90;;
6902;SDS011;20232;49.408;8.702;2022-09-13T10:44:54;2.87;;;2.50;;
6902;SDS011;20232;49.408;8.702;2022-09-13T10:52:56;2.87;;;2.57;;
6902;SDS011;20232;49.408;8.702;2022-09-13T10:55:24;4.03;;;2.40;;
6902;SDS011;20232;49.408;8.702;2022-09-13T10:57:50;5.20;;;2.40;;
6902;SDS011;20232;49.408;8.702;2022-09-13T11:00:18;3.63;;;2.40;;
6902;SDS011;20232;49.408;8.702;2022-09-13T11:07:49;7.97;;;3.47;;
6902;SDS011;20232;49.408;8.702;2022-09-13T11:15:31;4.60;;;3.10;;
6902;SDS011;20232;49.408;8.702;2022-09-13T11:20:48;3.17;;;2.50;;
6902;SDS011;20232;49.408;8.702;2022-09-13T11:39:49;3.33;;;2.60;;
6902;SDS011;20232;49.408;8.702;2022-09-13T11:42:45;3.70;;;2.63;;
6902;SDS011;20232;49.408;8.702;2022-09-13T11:45:46;4.87;;;2.67;;
6902;SDS011;20232;49.408;8.702;2022-09-13T11:51:18;4.93;;;2.80;;
6902;SDS011;20232;49.408;8.702;2022-09-13T11:56:58;7.43;;;2.77;;
6902;SDS011;20232;49.408;8.702;2022-09-13T12:02:19;3.17;;;2.87;;
6902;SDS011;20232;49.408;8.702;2022-09-13T12:05:22;2.90;;;2.60;;
6902;SDS011;20232;49.408;8.702;2022-09-13T12:08:09;3.97;;;3.27;;
6902;SDS011;20232;49.408;8.702;2022-09-13T12:10:53;5.93;;;3.00;;
6902;SDS011;20232;49.408;8.702;2022-09-13T12:16:32;5.57;;;2.60;;
6902;SDS011;20232;49.408;8.702;2022-09-13T12:18:57;4.00;;;2.70;;
6902;SDS011;20232;49.408;8.702;2022-09-13T12:21:25;3.67;;;2.73;;
6902;SDS011;20232;49.408;8.702;2022-09-13T12:23:56;4.63;;;2.90;;
6902;SDS011;20232;49.408;8.702;2022-09-13T12:29:56;7.43;;;2.67;;
6902;SDS011;20232;49.408;8.702;2022-09-13T12:32:45;4.63;;;2.60;;
6902;SDS011;20232;49.408;8.702;2022-09-13T12:57:56;8.03;;;3.20;;
6902;SDS011;20232;49.408;8.702;2022-09-13T13:03:42;6.47;;;2.80;;
6902;SDS011;20232;49.408;8.702;2022-09-13T13:06:33;3.93;;;2.67;;
6902;SDS011;20232;49.408;8.702;2022-09-13T13:09:05;5.07;;;2.93;;
6902;SDS011;20232;49.408;8.702;2022-09-13T13:11:46;3.13;;;2.80;;
6902;SDS011;20232;49.408;8.702;2022-09-13T13:19:59;4.93;;;2.83;;
6902;SDS011;20232;49.408;8.702;2022-09-13T13:39:09;4.23;;;2.50;;
6902;SDS011;20232;49.408;8.702;2022-09-13T13:42:11;5.33;;;2.43;;
6902;SDS011;20232;49.408;8.702;2022-09-13T13:57:25;4.70;;;2.17;;
6902;SDS011;20232;49.408;8.702;2022-09-13T14:05:23;2.87;;;2.43;;
6902;SDS011;20232;49.408;8.702;2022-09-13T14:10:35;3.83;;;2.40;;
6902;SDS011;20232;49.408;8.702;2022-09-13T14:21:43;3.93;;;2.23;;
6902;SDS011;20232;49.408;8.702;2022-09-13T14:26:48;5.43;;;2.23;;
6902;SDS011;20232;49.408;8.702;2022-09-13T14:29:17;3.63;;;2.70;;
6902;SDS011;20232;49.408;8.702;2022-09-13T14:31:46;2.67;;;2.40;;
6902;SDS011;20232;49.408;8.702;2022-09-13T14:34:33;4.63;;;3.33;;
6902;SDS011;20232;49.408;8.702;2022-09-13T14:37:03;2.93;;;2.40;;
6902;SDS011;20232;49.408;8.702;2022-09-13T14:39:30;3.23;;;2.70;;
6902;SDS011;20232;49.408;8.702;2022-09-13T14:41:58;4.57;;;2.30;;
6902;SDS011;20232;49.408;8.702;2022-09-13T14:44:26;4.37;;;2.47;;
6902;SDS011;20232;49.408;8.702;2022-09-13T14:46:57;2.20;;;2.10;;
6902;SDS011;20232;49.408;8.702;2022-09-13T14:49:38;4.03;;;2.43;;
6902;SDS011;20232;49.408;8.702;2022-09-13T14:52:09;2.40;;;2.20;;
6902;SDS011;20232;49.408;8.702;2022-09-13T14:54:45;4.17;;;2.30;;
6902;SDS011;20232;49.408;8.702;2022-09-13T14:57:22;3.33;;;2.30;;
6902;SDS011;20232;49.408;8.702;2022-09-13T15:03:09;5.60;;;2.40;;
6902;SDS011;20232;49.408;8.702;2022-09-13T15:05:35;7.10;;;2.60;;
6902;SDS011;20232;49.408;8.702;2022-09-13T15:08:47;11.23;;;7.83;;
6902;SDS011;20232;49.408;8.702;2022-09-13T15:10:51;9.27;;;6.00;;
6902;SDS011;20232;49.408;8.702;2022-09-13T15:13:18;7.43;;;4.70;;
6902;SDS011;20232;49.408;8.702;2022-09-13T15:15:43;4.63;;;4.23;;
6902;SDS011;20232;49.408;8.702;2022-09-13T15:23:13;5.30;;;4.17;;
6902;SDS011;20232;49.408;8.702;2022-09-13T15:25:40;4.47;;;4.07;;
6902;SDS011;20232;49.408;8.702;2022-09-13T15:28:20;4.90;;;2.97;;
6902;SDS011;20232;49.408;8.702;2022-09-13T15:30:54;5.73;;;2.83;;
6902;SDS011;20232;49.408;8.702;2022-09-13T15:33:22;2.50;;;2.30;;
6902;SDS011;20232;49.408;8.702;2022-09-13T15:41:37;5.90;;;2.30;;
6902;SDS011;20232;49.408;8.702;2022-09-13T15:44:05;4.33;;;2.27;;
6902;SDS011;20232;49.408;8.702;2022-09-13T15:46:46;3.37;;;2.40;;
6902;SDS011;20232;49.408;8.702;2022-09-13T15:49:26;3.87;;;1.80;;
6902;SDS011;20232;49.408;8.702;2022-09-13T15:51:53;2.23;;;1.90;;
6902;SDS011;20232;49.408;8.702;2022-09-13T15:54:21;3.60;;;2.10;;
6902;SDS011;20232;49.408;8.702;2022-09-13T15:56:48;3.83;;;2.67;;
6902;SDS011;20232;49.408;8.702;2022-09-13T15:59:18;3.70;;;2.07;;
6902;SDS011;20232;49.408;8.702;2022-09-13T16:01:46;5.73;;;2.30;;
6902;SDS011;20232;49.408;8.702;2022-09-13T16:04:13;5.50;;;2.30;;
6902;SDS011;20232;49.408;8.702;2022-09-13T16:06:39;3.70;;;2.33;;
6902;SDS011;20232;49.408;8.702;2022-09-13T16:09:26;3.53;;;2.20;;
6902;SDS011;20232;49.408;8.702;2022-09-13T16:11:51;3.50;;;1.80;;
6902;SDS011;20232;49.408;8.702;2022-09-13T16:14:17;3.07;;;1.97;;
6902;SDS011;20232;49.408;8.702;2022-09-13T16:16:43;8.40;;;2.40;;
6902;SDS011;20232;49.408;8.702;2022-09-13T16:19:17;2.87;;;1.60;;
6902;SDS011;20232;49.408;8.702;2022-09-13T16:21:44;6.57;;;2.40;;
6902;SDS011;20232;49.408;8.702;2022-09-13T16:24:10;4.27;;;1.90;;
6902;SDS011;20232;49.408;8.702;2022-09-13T16:26:36;2.20;;;2.00;;
6902;SDS011;20232;49.408;8.702;2022-09-13T16:29:03;3.87;;;2.00;;
6902;SDS011;20232;49.408;8.702;2022-09-13T16:31:29;3.20;;;2.20;;
6902;SDS011;20232;49.408;8.702;2022-09-13T16:33:54;4.07;;;2.53;;
6902;SDS011;20232;49.408;8.702;2022-09-13T16:36:20;4.93;;;2.40;;
6902;SDS011;20232;49.408;8.702;2022-09-13T16:38:45;4.70;;;2.27;;
6902;SDS011;20232;49.408;8.702;2022-09-13T16:41:11;4.30;;;2.20;;
6902;SDS011;20232;49.408;8.702;2022-09-13T16:43:36;7.80;;;2.20;;
6902;SDS011;20232;49.408;8.702;2022-09-13T16:46:06;2.27;;;2.07;;
6902;SDS011;20232;49.408;8.702;2022-09-13T16:48:37;5.17;;;2.10;;
6902;SDS011;20232;49.408;8.702;2022-09-13T16:51:03;5.40;;;2.20;;
6902;SDS011;20232;49.408;8.702;2022-09-13T16:53:34;4.37;;;1.90;;
6902;SDS011;20232;49.408;8.702;2022-09-13T16:56:05;4.07;;;2.10;;
6902;SDS011;20232;49.408;8.702;2022-09-13T16:58:36;9.33;;;2.00;;
6902;SDS011;20232;49.408;8.702;2022-09-13T17:01:04;5.67;;;2.00;;
6902;SDS011;20232;49.408;8.702;2022-09-13T17:03:34;4.57;;;2.27;;
6902;SDS011;20232;49.408;8.702;2022-09-13T17:06:01;6.27;;;2.30;;
6902;SDS011;20232;49.408;8.702;2022-09-13T17:08:29;5.60;;;2.07;;
6902;SDS011;20232;49.408;8.702;2022-09-13T17:10:55;4.30;;;2.00;;
6902;SDS011;20232;49.408;8.702;2022-09-13T17:13:21;4.30;;;1.73;;
6902;SDS011;20232;49.408;8.702;2022-09-13T17:15:48;8.50;;;2.20;;
6902;SDS011;20232;49.408;8.702;2022-09-13T17:18:13;4.90;;;2.00;;
6902;SDS011;20232;49.408;8.702;2022-09-13T17:20:46;5.57;;;2.10;;
6902;SDS011;20232;49.408;8.702;2022-09-13T17:23:13;5.80;;;2.27;;
6902;SDS011;20232;49.408;8.702;2022-09-13T17:25:40;5.97;;;2.13;;
6902;SDS011;20232;49.408;8.702;2022-09-13T17:28:16;4.07;;;2.13;;
6902;SDS011;20232;49.408;8.702;2022-09-13T17:30:42;2.57;;;2.00;;
6902;SDS011;20232;49.408;8.702;2022-09-13T17:33:10;7.60;;;2.07;;
6902;SDS011;20232;49.408;8.702;2022-09-13T17:35:36;4.47;;;2.10;;
6902;SDS011;20232;49.408;8.702;2022-09-13T17:38:02;4.27;;;1.90;;
6902;SDS011;20232;49.408;8.702;2022-09-13T17:40:28;4.80;;;2.10;;
6902;SDS011;20232;49.408;8.702;2022-09-13T17:42:55;7.07;;;2.20;;
6902;SDS011;20232;49.408;8.702;2022-09-13T17:45:21;4.77;;;2.13;;
6902;SDS011;20232;49.408;8.702;2022-09-13T17:47:47;5.50;;;2.00;;
6902;SDS011;20232;49.408;8.702;2022-09-13T17:50:13;3.43;;;1.93;;
6902;SDS011;20232;49.408;8.702;2022-09-13T17:52:38;7.87;;;2.70;;
6902;SDS011;20232;49.408;8.702;2022-09-13T17:55:05;4.00;;;1.90;;
6902;SDS011;20232;49.408;8.702;2022-09-13T17:57:31;3.50;;;2.13;;
6902;SDS011;20232;49.408;8.702;2022-09-13T17:59:56;2.50;;;1.90;;
6902;SDS011;20232;49.408;8.702;2022-09-13T18:02:22;3.00;;;1.70;;
6902;SDS011;20232;49.408;8.702;2022-09-13T18:04:49;4.27;;;1.90;;
6902;SDS011;20232;49.408;8.702;2022-09-13T18:07:15;6.10;;;2.47;;
6902;SDS011;20232;49.408;8.702;2022-09-13T18:09:41;5.30;;;2.00;;
6902;SDS011;20232;49.408;8.702;2022-09-13T18:12:07;6.77;;;2.07;;
6902;SDS011;20232;49.408;8.702;2022-09-13T18:14:32;5.40;;;1.80;;
6902;SDS011;20232;49.408;8.702;2022-09-13T18:16:58;6.57;;;2.13;;
6902;SDS011;20232;49.408;8.702;2022-09-13T18:19:24;5.07;;;2.23;;
6902;SDS011;20232;49.408;8.702;2022-09-13T18:21:49;3.77;;;2.10;;
6902;SDS011;20232;49.408;8.702;2022-09-13T18:24:15;4.73;;;1.97;;
6902;SDS011;20232;49.408;8.702;2022-09-13T18:26:41;6.57;;;2.00;;
6902;SDS011;20232;49.408;8.702;2022-09-13T18:29:09;3.83;;;2.00;;
6902;SDS011;20232;49.408;8.702;2022-09-13T18:31:36;4.73;;;1.87;;
6902;SDS011;20232;49.408;8.702;2022-09-13T18:34:04;4.80;;;2.20;;
6902;SDS011;20232;49.408;8.702;2022-09-13T18:36:32;3.33;;;2.17;;
6902;SDS011;20232;49.408;8.702;2022-09-13T18:38:58;7.67;;;2.30;;
6902;SDS011;20232;49.408;8.702;2022-09-13T18:41:34;3.03;;;2.10;;
6902;SDS011;20232;49.408;8.702;2022-09-13T18:44:02;5.27;;;2.00;;
6902;SDS011;20232;49.408;8.702;2022-09-13T18:46:31;3.43;;;1.87;;
6902;SDS011;20232;49.408;8.702;2022-09-13T18:48:58;6.60;;;2.03;;
6902;SDS011;20232;49.408;8.702;2022-09-13T18:51:29;7.00;;;1.80;;
6902;SDS011;20232;49.408;8.702;2022-09-13T18:53:56;5.40;;;1.90;;
6902;SDS011;20232;49.408;8.702;2022-09-13T18:56:23;3.53;;;1.70;;
6902;SDS011;20232;49.408;8.702;2022-09-13T18:58:49;4.17;;;1.40;;
6902;SDS011;20232;49.408;8.702;2022-09-13T19:01:18;7.70;;;1.53;;
6902;SDS011;20232;49.408;8.702;2022-09-13T19:03:48;6.53;;;1.70;;
6902;SDS011;20232;49.408;8.702;2022-09-13T19:06:19;4.20;;;1.50;;
6902;SDS011;20232;49.408;8.702;2022-09-13T19:08:47;4.70;;;2.07;;
6902;SDS011;20232;49.408;8.702;2022-09-13T19:11:14;7.90;;;2.23;;
6902;SDS011;20232;49.408;8.702;2022-09-13T19:13:41;6.70;;;1.73;;
6902;SDS011;20232;49.408;8.702;2022-09-13T19:16:07;3.13;;;1.90;;
6902;SDS011;20232;49.408;8.702;2022-09-13T19:18:36;4.50;;;2.00;;
6902;SDS011;20232;49.408;8.702;2022-09-13T19:21:03;6.70;;;1.83;;
6902;SDS011;20232;49.408;8.702;2022-09-13T19:23:34;6.13;;;1.70;;
6902;SDS011;20232;49.408;8.702;2022-09-13T19:28:57;5.83;;;1.63;;
6902;SDS011;20232;49.408;8.702;2022-09-13T19:31:30;6.53;;;2.00;;
6902;SDS011;20232;49.408;8.702;2022-09-13T19:33:57;4.67;;;2.07;;
6902;SDS011;20232;49.408;8.702;2022-09-13T19:36:24;6.37;;;2.27;;
6902;SDS011;20232;49.408;8.702;2022-09-13T19:38:54;7.07;;;2.50;;
6902;SDS011;20232;49.408;8.702;2022-09-13T19:41:22;4.50;;;2.10;;
6902;SDS011;20232;49.408;8.702;2022-09-13T19:43:49;3.43;;;2.07;;
6902;SDS011;20232;49.408;8.702;2022-09-13T19:46:20;5.37;;;1.90;;
6902;SDS011;20232;49.408;8.702;2022-09-13T19:48:51;6.63;;;1.97;;
6902;SDS011;20232;49.408;8.702;2022-09-13T19:51:20;2.93;;;1.90;;
6902;SDS011;20232;49.408;8.702;2022-09-13T19:53:46;2.50;;;1.73;;
6902;SDS011;20232;49.408;8.702;2022-09-13T19:56:16;3.37;;;1.60;;
6902;SDS011;20232;49.408;8.702;2022-09-13T19:58:43;2.50;;;1.80;;
6902;SDS011;20232;49.408;8.702;2022-09-13T20:01:10;6.00;;;1.90;;
6902;SDS011;20232;49.408;8.702;2022-09-13T20:03:39;3.90;;;2.17;;
6902;SDS011;20232;49.408;8.702;2022-09-13T20:06:06;6.93;;;2.50;;
6902;SDS011;20232;49.408;8.702;2022-09-13T20:08:33;4.57;;;3.20;;
6902;SDS011;20232;49.408;8.702;2022-09-13T20:11:04;4.30;;;2.10;;
6902;SDS011;20232;49.408;8.702;2022-09-13T20:13:31;7.73;;;2.00;;
6902;SDS011;20232;49.408;8.702;2022-09-13T20:15:56;4.23;;;1.97;;
6902;SDS011;20232;49.408;8.702;2022-09-13T20:18:22;2.50;;;1.70;;
6902;SDS011;20232;49.408;8.702;2022-09-13T20:20:49;5.10;;;2.10;;
6902;SDS011;20232;49.408;8.702;2022-09-13T20:23:15;3.27;;;1.63;;
6902;SDS011;20232;49.408;8.702;2022-09-13T20:25:42;4.03;;;2.27;;
6902;SDS011;20232;49.408;8.702;2022-09-13T20:28:08;4.10;;;1.93;;
6902;SDS011;20232;49.408;8.702;2022-09-13T20:30:35;3.87;;;1.73;;
6902;SDS011;20232;49.408;8.702;2022-09-13T20:33:01;4.50;;;1.67;;
6902;SDS011;20232;49.408;8.702;2022-09-13T20:35:28;5.53;;;1.97;;
6902;SDS011;20232;49.408;8.702;2022-09-13T20:37:56;2.83;;;1.50;;
6902;SDS011;20232;49.408;8.702;2022-09-13T20:40:21;7.10;;;2.37;;
6902;SDS011;20232;49.408;8.702;2022-09-13T20:42:48;7.13;;;2.00;;
6902;SDS011;20232;49.408;8.702;2022-09-13T20:45:15;2.20;;;1.60;;
6902;SDS011;20232;49.408;8.702;2022-09-13T20:47:41;5.43;;;2.40;;
6902;SDS011;20232;49.408;8.702;2022-09-13T20:50:07;3.07;;;1.80;;
6902;SDS011;20232;49.408;8.702;2022-09-13T20:52:33;3.87;;;2.00;;
6902;SDS011;20232;49.408;8.702;2022-09-13T20:54:59;5.10;;;2.10;;
6902;SDS011;20232;49.408;8.702;2022-09-13T20:57:25;6.03;;;2.00;;
6902;SDS011;20232;49.408;8.702;2022-09-13T20:59:52;5.53;;;2.30;;
6902;SDS011;20232;49.408;8.702;2022-09-13T21:02:17;5.17;;;2.07;;
6902;SDS011;20232;49.408;8.702;2022-09-13T21:04:43;6.90;;;2.07;;
6902;SDS011;20232;49.408;8.702;2022-09-13T21:07:12;3.93;;;2.07;;
6902;SDS011;20232;49.408;8.702;2022-09-13T21:09:56;3.87;;;2.00;;
6902;SDS011;20232;49.408;8.702;2022-09-13T21:12:27;6.90;;;1.90;;
6902;SDS011;20232;49.408;8.702;2022-09-13T21:14:53;3.97;;;2.00;;
6902;SDS011;20232;49.408;8.702;2022-09-13T21:17:18;4.20;;;1.93;;
6902;SDS011;20232;49.408;8.702;2022-09-13T21:19:44;3.50;;;2.30;;
6902;SDS011;20232;49.408;8.702;2022-09-13T21:22:10;4.80;;;2.27;;
6902;SDS011;20232;49.408;8.702;2022-09-13T21:24:35;3.40;;;2.43;;
6902;SDS011;20232;49.408;8.702;2022-09-13T21:27:02;5.33;;;2.60;;
6902;SDS011;20232;49.408;8.702;2022-09-13T21:29:28;3.83;;;2.43;;
6902;SDS011;20232;49.408;8.702;2022-09-13T21:31:53;7.37;;;2.73;;
6902;SDS011;20232;49.408;8.702;2022-09-13T21:34:20;3.57;;;2.50;;
6902;SDS011;20232;49.408;8.702;2022-09-13T21:36:46;5.97;;;2.73;;
6902;SDS011;20232;49.408;8.702;2022-09-13T21:39:12;5.20;;;2.73;;
6902;SDS011;20232;49.408;8.702;2022-09-13T21:41:39;5.70;;;2.40;;
6902;SDS011;20232;49.408;8.702;2022-09-13T21:44:04;7.83;;;2.53;;
6902;SDS011;20232;49.408;8.702;2022-09-13T21:46:31;5.20;;;2.60;;
6902;SDS011;20232;49.408;8.702;2022-09-13T21:49:03;7.63;;;3.47;;
6902;SDS011;20232;49.408;8.702;2022-09-13T21:51:31;7.00;;;4.13;;
6902;SDS011;20232;49.408;8.702;2022-09-13T21:53:59;9.63;;;4.10;;
6902;SDS011;20232;49.408;8.702;2022-09-13T21:56:28;9.60;;;4.30;;